Margaret Anne — WDJ3914 — position and weather

sailwx.info

Track history (hours):
 
Tides and Currents Weather Stations Pressure Air Temp Water Temp Dewpoint Dewpoint Depression Visibility Wind Speed Wind Dir Waves Ship Positions

Margaret Anne

Owner: Genesis Marine,LLC, Houston, TX. More information available from US FCC via Universal Licensing System and Coast Guard Vessel Documentation Center.

Last reported at 2017-Dec-09 13:43 UTC. Time now 2017-Dec-13 14:36 UTC.
Position N 28°18' W 096°42'.

Length 26 m.

Type: Towing. MMSI: 367772590.

Date/timePositionNaut miles runAvg speedWind from/ knotsBaromVisibWave heightAir tempDewpointWater temp
2017-Dec-09 13:43N 28°18' W 096°42'1 5.7
2017-Dec-09 13:30N 28°17' W 096°43'3 5.9
2017-Dec-09 12:59N 28°15' W 096°46'2 3.9
2017-Dec-09 12:29N 28°14' W 096°48'0 0.0
2017-Dec-09 12:00N 28°14' W 096°48'0 0.0
2017-Dec-09 11:30N 28°14' W 096°48'0 0.0
2017-Dec-09 10:51N 28°14' W 096°48'0 0.1
2017-Dec-09 10:28N 28°14' W 096°48'0 0.1
2017-Dec-09 09:57N 28°14' W 096°48'1 1.5
2017-Dec-09 09:18N 28°13' W 096°49'2 5.7
2017-Dec-09 08:59N 28°12' W 096°50'3 6.2
2017-Dec-09 08:29N 28°10' W 096°53'3 6.2
2017-Dec-09 08:00N 28°08' W 096°55'2 4.8
2017-Dec-09 07:30N 28°06' W 096°57'3 5.9
2017-Dec-09 07:00N 28°03' W 096°59'3 6.1
2017-Dec-09 06:29N 28°01' W 097°01'3 6.2
2017-Dec-09 05:59N 27°59' W 097°03'3 6.1
2017-Dec-09 05:29N 27°55' W 097°03'3 7.2
2017-Dec-09 05:00N 27°52' W 097°03'3 5.3
2017-Dec-09 04:30N 27°50' W 097°05'3 5.2
2017-Dec-09 04:00N 27°50' W 097°08'3 5.6
2017-Dec-09 03:29N 27°49' W 097°11'3 6.2
2017-Dec-09 02:59N 27°49' W 097°15'3 6.6
2017-Dec-09 02:30N 27°49' W 097°18'3 6.6
2017-Dec-09 01:59N 27°49' W 097°22'3 6.1
2017-Dec-09 01:27N 27°49' W 097°26'2 4.2
2017-Dec-09 01:00N 27°49' W 097°28'3 5.0
2017-Dec-09 00:28N 27°50' W 097°31'1 0.3
2017-Dec-08 22:38N 27°51' W 097°31'1 6.0
2017-Dec-08 22:30N 27°50' W 097°30'2 0.3
2017-Dec-08 15:50N 27°49' W 097°28'0 0.0
2017-Dec-08 15:29N 27°49' W 097°28'0 0.0
2017-Dec-08 14:59N 27°49' W 097°28'0 0.0
2017-Dec-08 14:29N 27°49' W 097°28'0 0.0
2017-Dec-08 13:59N 27°49' W 097°28'0 0.0
2017-Dec-08 13:30N 27°49' W 097°28'0 0.0
2017-Dec-08 12:58N 27°49' W 097°28'0 0.0
2017-Dec-08 11:43N 27°49' W 097°28'0 0.0
2017-Dec-08 11:25N 27°49' W 097°28'0 0.0
2017-Dec-08 10:58N 27°49' W 097°28'0 0.0
2017-Dec-08 10:29N 27°49' W 097°28'0 0.0
2017-Dec-08 09:59N 27°49' W 097°28'0 0.0
2017-Dec-08 09:29N 27°49' W 097°28'0 0.0
2017-Dec-08 08:59N 27°49' W 097°28'0 0.0
2017-Dec-08 08:28N 27°49' W 097°28'0 0.0
2017-Dec-08 08:00N 27°49' W 097°28'0 0.0
2017-Dec-08 07:29N 27°49' W 097°28'0 0.0
2017-Dec-08 06:58N 27°49' W 097°28'0 0.0
2017-Dec-08 06:29N 27°49' W 097°28'0 0.0
2017-Dec-08 06:00N 27°49' W 097°28'0 0.0
2017-Dec-08 05:30N 27°49' W 097°28'0 0.0
2017-Dec-08 04:58N 27°49' W 097°28'0 0.0
2017-Dec-08 04:30N 27°49' W 097°28'0 0.0
2017-Dec-08 03:59N 27°49' W 097°28'0 0.0
2017-Dec-08 03:30N 27°49' W 097°28'0 0.0
2017-Dec-08 03:00N 27°49' W 097°28'0 0.0
2017-Dec-08 02:27N 27°49' W 097°28'0 0.0
2017-Dec-08 01:52N 27°49' W 097°28'0 0.0
2017-Dec-08 01:30N 27°49' W 097°28'0 0.0
2017-Dec-08 00:59N 27°49' W 097°28'0 0.0
2017-Dec-08 00:30N 27°49' W 097°28'0 0.0
2017-Dec-08 00:00N 27°49' W 097°28'0 0.0
2017-Dec-07 23:29N 27°49' W 097°28'0 0.0
2017-Dec-07 23:00N 27°49' W 097°28'2 0.5
2017-Dec-07 19:03N 27°49' W 097°26'0 0.0
2017-Dec-07 18:55N 27°49' W 097°26'0 0.0
2017-Dec-07 18:30N 27°49' W 097°26'2 3.4
2017-Dec-07 17:58N 27°49' W 097°28'0 0.5
2017-Dec-07 17:29N 27°49' W 097°28'0 0.0
2017-Dec-07 16:56N 27°49' W 097°28'0 0.0
2017-Dec-07 16:28N 27°49' W 097°28'0 0.0
2017-Dec-07 16:00N 27°49' W 097°28'0 0.0
2017-Dec-07 15:30N 27°49' W 097°28'0 0.0
2017-Dec-07 15:00N 27°49' W 097°28'0 0.0
2017-Dec-07 14:28N 27°49' W 097°28'0 0.0
2017-Dec-07 14:00N 27°49' W 097°28'0 0.0
2017-Dec-07 13:27N 27°49' W 097°28'0 0.0
2017-Dec-07 12:57N 27°49' W 097°28'0 0.0
2017-Dec-07 12:29N 27°49' W 097°28'0 0.0
2017-Dec-07 11:59N 27°49' W 097°28'0 0.0
2017-Dec-07 11:29N 27°49' W 097°28'0 0.0
2017-Dec-07 11:00N 27°49' W 097°28'0 0.0
2017-Dec-07 10:29N 27°49' W 097°28'0 0.0
2017-Dec-07 09:58N 27°49' W 097°28'0 0.0
2017-Dec-07 09:29N 27°49' W 097°28'0 0.0
2017-Dec-07 09:00N 27°49' W 097°28'0 0.2
2017-Dec-07 08:27N 27°49' W 097°28'0 0.3
2017-Dec-07 07:59N 27°49' W 097°28'0 0.2
2017-Dec-07 07:29N 27°49' W 097°28'0 0.0
2017-Dec-07 06:55N 27°49' W 097°28'0 0.0
2017-Dec-07 06:30N 27°49' W 097°28'0 0.0
2017-Dec-07 06:00N 27°49' W 097°28'0 0.0
2017-Dec-07 05:28N 27°49' W 097°28'0 0.0
2017-Dec-07 05:00N 27°49' W 097°28'1 2.9
2017-Dec-07 04:29N 27°49' W 097°27'1 0.2
2017-Dec-07 02:06N 27°49' W 097°26'0 0.0
2017-Dec-07 00:48N 27°49' W 097°26'0 0.0
2017-Dec-06 23:10N 27°49' W 097°26'2 4.9
2017-Dec-06 22:46N 27°49' W 097°28'0 0.0
2017-Dec-06 22:30N 27°49' W 097°28'0 0.0
2017-Dec-06 22:00N 27°49' W 097°28'0 0.1
2017-Dec-06 21:14N 27°49' W 097°28'  
2017-Dec-04 10:24N 27°49' W 097°28'0 0.0
2017-Dec-04 09:52N 27°49' W 097°28'0 0.0
2017-Dec-04 09:30N 27°49' W 097°28'0 0.0
2017-Dec-03 10:53N 27°49' W 097°28'1 0.1
2017-Dec-03 00:20N 27°49' W 097°28'0 0.0
2017-Dec-02 23:36N 27°49' W 097°28'0 0.0
2017-Dec-02 22:46N 27°49' W 097°28'0 0.0
2017-Dec-02 19:46N 27°49' W 097°28'0 0.0
2017-Dec-02 19:29N 27°49' W 097°28'0 0.0
2017-Dec-02 18:59N 27°49' W 097°28'0 0.0
2017-Dec-02 18:29N 27°49' W 097°28'0 0.0
2017-Dec-02 18:00N 27°49' W 097°28'0 0.0
2017-Dec-02 17:26N 27°49' W 097°28'0 0.0
2017-Dec-02 16:59N 27°49' W 097°28'0 0.0
2017-Dec-02 16:28N 27°49' W 097°28'0 0.0
2017-Dec-02 16:00N 27°49' W 097°28'0 0.0
2017-Dec-02 15:29N 27°49' W 097°28'0 0.0
2017-Dec-02 14:59N 27°49' W 097°28'0 0.0
2017-Dec-02 14:30N 27°49' W 097°28'0 0.0
2017-Dec-02 14:00N 27°49' W 097°28'0 0.0
2017-Dec-02 13:30N 27°49' W 097°28'0 0.0
2017-Dec-02 13:00N 27°49' W 097°28'0 0.0
2017-Dec-02 12:28N 27°49' W 097°28'0 0.0
2017-Dec-02 12:00N 27°49' W 097°28'0 0.0
2017-Dec-02 11:29N 27°49' W 097°28'0 0.0
2017-Dec-02 11:00N 27°49' W 097°28'0 0.0
2017-Dec-02 10:29N 27°49' W 097°28'0 0.0
2017-Dec-02 10:00N 27°49' W 097°28'0 0.0
2017-Dec-02 09:29N 27°49' W 097°28'0 0.0
2017-Dec-02 08:59N 27°49' W 097°28'0 0.0
2017-Dec-02 08:29N 27°49' W 097°28'0 0.0
2017-Dec-02 08:00N 27°49' W 097°28'0 0.0
2017-Dec-02 07:29N 27°49' W 097°28'0 0.0
2017-Dec-01 23:35N 27°49' W 097°28'0 0.1
2017-Dec-01 23:26N 27°49' W 097°28'0 0.3
2017-Dec-01 22:33N 27°49' W 097°29'0 2.9
2017-Dec-01 22:29N 27°49' W 097°28'2 5.0
2017-Dec-01 21:59N 27°49' W 097°26'0 0.9
2017-Dec-01 21:27N 27°49' W 097°25'3 7.6
2017-Dec-01 21:00N 27°49' W 097°21'4 7.6
2017-Dec-01 20:29N 27°49' W 097°17'4 7.8
2017-Dec-01 19:59N 27°49' W 097°12'4 8.5
2017-Dec-01 19:30N 27°50' W 097°08'4 8.2
2017-Dec-01 18:59N 27°51' W 097°03'1 2.2
2017-Dec-01 18:29N 27°52' W 097°03'0 0.0
2017-Dec-01 18:00N 27°52' W 097°03'0 0.0
2017-Dec-01 17:29N 27°52' W 097°03'0 0.0
2017-Dec-01 17:00N 27°52' W 097°03'0 0.0
2017-Dec-01 16:29N 27°52' W 097°03'0 0.0
2017-Dec-01 15:58N 27°52' W 097°03'0 0.0
2017-Dec-01 15:30N 27°52' W 097°03'0 0.0
2017-Dec-01 14:59N 27°52' W 097°03'0 0.0
2017-Dec-01 14:30N 27°52' W 097°03'0 0.0
2017-Dec-01 13:59N 27°52' W 097°03'0 0.0
2017-Dec-01 13:30N 27°52' W 097°03'0 0.0
2017-Dec-01 13:00N 27°52' W 097°03'0 0.0
2017-Dec-01 12:29N 27°52' W 097°03'0 0.0
2017-Dec-01 11:59N 27°52' W 097°03'0 0.0
2017-Dec-01 11:30N 27°52' W 097°03'0 0.0
2017-Dec-01 10:59N 27°52' W 097°03'0 0.0
2017-Dec-01 10:29N 27°52' W 097°03'0 0.0
2017-Dec-01 10:00N 27°52' W 097°03'0 0.0
2017-Dec-01 09:30N 27°52' W 097°03'0 0.0
2017-Dec-01 08:59N 27°52' W 097°03'0 0.0
2017-Dec-01 08:29N 27°52' W 097°03'0 0.0
2017-Dec-01 07:58N 27°52' W 097°03'0 0.0
2017-Dec-01 07:29N 27°52' W 097°03'0 0.0
2017-Dec-01 06:59N 27°52' W 097°03'0 0.0
2017-Dec-01 06:30N 27°52' W 097°03'0 0.0
2017-Dec-01 06:00N 27°52' W 097°03'0 0.0
2017-Dec-01 05:29N 27°52' W 097°03'0 0.0
2017-Dec-01 05:00N 27°52' W 097°03'0 0.0
2017-Dec-01 04:29N 27°52' W 097°03'0 0.0
2017-Dec-01 03:59N 27°52' W 097°03'0 0.0
2017-Dec-01 03:30N 27°52' W 097°03'0 0.0
2017-Dec-01 02:59N 27°52' W 097°03'0 0.0
2017-Dec-01 02:30N 27°52' W 097°03'0 0.0
2017-Dec-01 02:00N 27°52' W 097°03'0 0.0
2017-Dec-01 01:30N 27°52' W 097°03'1 2.0
2017-Dec-01 00:59N 27°51' W 097°03'0 0.5
2017-Dec-01 00:29N 27°52' W 097°03'2 4.2
2017-Dec-01 00:00N 27°50' W 097°05'3 5.1
2017-Nov-30 23:29N 27°50' W 097°08'3 5.2
2017-Nov-30 22:59N 27°49' W 097°11'2 4.2
2017-Nov-30 22:30N 27°51' W 097°10'0 0.3
2017-Nov-30 22:00N 27°51' W 097°10'2 3.3
2017-Nov-30 21:29N 27°49' W 097°10'4 8.6
2017-Nov-30 20:59N 27°50' W 097°05'2 3.3
2017-Nov-30 20:30N 27°51' W 097°04'0 0.0
2017-Nov-30 19:59N 27°51' W 097°04'0 0.0
2017-Nov-30 19:30N 27°51' W 097°04'0 0.0
2017-Nov-30 19:00N 27°51' W 097°04'0 0.0
2017-Nov-30 18:29N 27°51' W 097°04'2 3.2
2017-Nov-30 17:59N 27°52' W 097°03'0 0.0
2017-Nov-30 17:30N 27°52' W 097°03'0 0.0
2017-Nov-30 17:00N 27°52' W 097°03'0 0.2
2017-Nov-30 16:29N 27°52' W 097°03'0 0.2
2017-Nov-30 15:59N 27°52' W 097°03'0 0.0
2017-Nov-30 15:29N 27°52' W 097°03'0 0.0
2017-Nov-30 15:00N 27°52' W 097°03'0 0.0
2017-Nov-30 14:29N 27°52' W 097°03'0 0.0
2017-Nov-30 14:00N 27°52' W 097°03'0 0.0
2017-Nov-30 13:30N 27°52' W 097°03'0 0.0
2017-Nov-30 13:00N 27°52' W 097°03'0 0.0
2017-Nov-30 12:29N 27°52' W 097°03'0 0.0
2017-Nov-30 11:59N 27°52' W 097°03'0 0.0
2017-Nov-30 11:30N 27°52' W 097°03'0 0.0
2017-Nov-30 10:59N 27°52' W 097°03'0 0.0
2017-Nov-30 10:29N 27°52' W 097°03'0 0.0
2017-Nov-30 10:00N 27°52' W 097°03'0 0.0
2017-Nov-30 09:29N 27°52' W 097°03'0 0.0
2017-Nov-30 08:59N 27°52' W 097°03'1 1.7
2017-Nov-30 08:30N 27°53' W 097°03'0 0.0
2017-Nov-30 08:00N 27°53' W 097°03'0 0.0
2017-Nov-30 07:29N 27°53' W 097°03'0 0.1
2017-Nov-30 06:59N 27°53' W 097°03'0 0.5
2017-Nov-30 06:30N 27°53' W 097°03'0 1.0
2017-Nov-30 06:00N 27°52' W 097°03'2 3.5
2017-Nov-30 05:29N 27°54' W 097°03'3 6.9
2017-Nov-30 05:00N 27°57' W 097°03'4 6.9
2017-Nov-30 04:30N 28°00' W 097°01'4 7.3
2017-Nov-30 04:00N 28°03' W 096°59'4 7.0
2017-Nov-30 03:29N 28°06' W 096°56'3 6.9
2017-Nov-30 02:59N 28°09' W 096°54'3 7.2
2017-Nov-30 02:30N 28°11' W 096°51'3 6.7
2017-Nov-30 01:59N 28°13' W 096°48'3 5.7
2017-Nov-30 01:29N 28°15' W 096°45'4 7.1
2017-Nov-30 00:59N 28°17' W 096°42'3 6.1
2017-Nov-30 00:30N 28°19' W 096°40'2 3.3
2017-Nov-29 23:59N 28°20' W 096°38'3 5.5
2017-Nov-29 23:30N 28°21' W 096°36'2 4.5
2017-Nov-29 22:59N 28°23' W 096°33'24 4.9
2017-Nov-29 18:04N 28°36' W 096°11'0 0.1
2017-Nov-29 17:53N 28°36' W 096°11'2 4.6
2017-Nov-29 17:30N 28°37' W 096°09'3 5.9
2017-Nov-29 16:58N 28°38' W 096°05'3 5.9
2017-Nov-29 16:26N 28°40' W 096°02'2 4.6
2017-Nov-29 15:58N 28°40' W 095°60'0 0.0
2017-Nov-29 15:30N 28°40' W 095°60'0 0.0
2017-Nov-29 14:58N 28°40' W 095°60'0 0.0
2017-Nov-29 14:29N 28°40' W 095°60'0 0.0
2017-Nov-29 13:45N 28°40' W 095°60'  
Track history (hours):
 
Tides and Currents Weather Stations Pressure Air Temp Water Temp Dewpoint Dewpoint Depression Visibility Wind Speed Wind Dir Waves Ship Positions

Margaret Anne

Owner: Genesis Marine,LLC, Houston, TX. More information available from US FCC via Universal Licensing System and Coast Guard Vessel Documentation Center.

Last reported at 2017-Dec-09 13:43 UTC. Time now 2017-Dec-13 14:36 UTC.
Position N 28°18' W 096°42'.

Length 26 m.

Type: Towing. MMSI: 367772590.

Date/timePositionNaut miles runAvg speedWind from/ knotsBaromVisibWave heightAir tempDewpointWater temp
2017-Dec-09 13:43N 28°18' W 096°42'1 5.7
2017-Dec-09 13:30N 28°17' W 096°43'3 5.9
2017-Dec-09 12:59N 28°15' W 096°46'2 3.9
2017-Dec-09 12:29N 28°14' W 096°48'0 0.0
2017-Dec-09 12:00N 28°14' W 096°48'0 0.0
2017-Dec-09 11:30N 28°14' W 096°48'0 0.0
2017-Dec-09 10:51N 28°14' W 096°48'0 0.1
2017-Dec-09 10:28N 28°14' W 096°48'0 0.1
2017-Dec-09 09:57N 28°14' W 096°48'1 1.5
2017-Dec-09 09:18N 28°13' W 096°49'2 5.7
2017-Dec-09 08:59N 28°12' W 096°50'3 6.2
2017-Dec-09 08:29N 28°10' W 096°53'3 6.2
2017-Dec-09 08:00N 28°08' W 096°55'2 4.8
2017-Dec-09 07:30N 28°06' W 096°57'3 5.9
2017-Dec-09 07:00N 28°03' W 096°59'3 6.1
2017-Dec-09 06:29N 28°01' W 097°01'3 6.2
2017-Dec-09 05:59N 27°59' W 097°03'3 6.1
2017-Dec-09 05:29N 27°55' W 097°03'3 7.2
2017-Dec-09 05:00N 27°52' W 097°03'3 5.3
2017-Dec-09 04:30N 27°50' W 097°05'3 5.2
2017-Dec-09 04:00N 27°50' W 097°08'3 5.6
2017-Dec-09 03:29N 27°49' W 097°11'3 6.2
2017-Dec-09 02:59N 27°49' W 097°15'3 6.6
2017-Dec-09 02:30N 27°49' W 097°18'3 6.6
2017-Dec-09 01:59N 27°49' W 097°22'3 6.1
2017-Dec-09 01:27N 27°49' W 097°26'2 4.2
2017-Dec-09 01:00N 27°49' W 097°28'3 5.0
2017-Dec-09 00:28N 27°50' W 097°31'1 0.3
2017-Dec-08 22:38N 27°51' W 097°31'1 6.0
2017-Dec-08 22:30N 27°50' W 097°30'2 0.3
2017-Dec-08 15:50N 27°49' W 097°28'0 0.0
2017-Dec-08 15:29N 27°49' W 097°28'0 0.0
2017-Dec-08 14:59N 27°49' W 097°28'0 0.0
2017-Dec-08 14:29N 27°49' W 097°28'0 0.0
2017-Dec-08 13:59N 27°49' W 097°28'0 0.0
2017-Dec-08 13:30N 27°49' W 097°28'0 0.0
2017-Dec-08 12:58N 27°49' W 097°28'0 0.0
2017-Dec-08 11:43N 27°49' W 097°28'0 0.0
2017-Dec-08 11:25N 27°49' W 097°28'0 0.0
2017-Dec-08 10:58N 27°49' W 097°28'0 0.0
2017-Dec-08 10:29N 27°49' W 097°28'0 0.0
2017-Dec-08 09:59N 27°49' W 097°28'0 0.0
2017-Dec-08 09:29N 27°49' W 097°28'0 0.0
2017-Dec-08 08:59N 27°49' W 097°28'0 0.0
2017-Dec-08 08:28N 27°49' W 097°28'0 0.0
2017-Dec-08 08:00N 27°49' W 097°28'0 0.0
2017-Dec-08 07:29N 27°49' W 097°28'0 0.0
2017-Dec-08 06:58N 27°49' W 097°28'0 0.0
2017-Dec-08 06:29N 27°49' W 097°28'0 0.0
2017-Dec-08 06:00N 27°49' W 097°28'0 0.0
2017-Dec-08 05:30N 27°49' W 097°28'0 0.0
2017-Dec-08 04:58N 27°49' W 097°28'0 0.0
2017-Dec-08 04:30N 27°49' W 097°28'0 0.0
2017-Dec-08 03:59N 27°49' W 097°28'0 0.0
2017-Dec-08 03:30N 27°49' W 097°28'0 0.0
2017-Dec-08 03:00N 27°49' W 097°28'0 0.0
2017-Dec-08 02:27N 27°49' W 097°28'0 0.0
2017-Dec-08 01:52N 27°49' W 097°28'0 0.0
2017-Dec-08 01:30N 27°49' W 097°28'0 0.0
2017-Dec-08 00:59N 27°49' W 097°28'0 0.0
2017-Dec-08 00:30N 27°49' W 097°28'0 0.0
2017-Dec-08 00:00N 27°49' W 097°28'0 0.0
2017-Dec-07 23:29N 27°49' W 097°28'0 0.0
2017-Dec-07 23:00N 27°49' W 097°28'2 0.5
2017-Dec-07 19:03N 27°49' W 097°26'0 0.0
2017-Dec-07 18:55N 27°49' W 097°26'0 0.0
2017-Dec-07 18:30N 27°49' W 097°26'2 3.4
2017-Dec-07 17:58N 27°49' W 097°28'0 0.5
2017-Dec-07 17:29N 27°49' W 097°28'0 0.0
2017-Dec-07 16:56N 27°49' W 097°28'0 0.0
2017-Dec-07 16:28N 27°49' W 097°28'0 0.0
2017-Dec-07 16:00N 27°49' W 097°28'0 0.0
2017-Dec-07 15:30N 27°49' W 097°28'0 0.0
2017-Dec-07 15:00N 27°49' W 097°28'0 0.0
2017-Dec-07 14:28N 27°49' W 097°28'0 0.0
2017-Dec-07 14:00N 27°49' W 097°28'0 0.0
2017-Dec-07 13:27N 27°49' W 097°28'0 0.0
2017-Dec-07 12:57N 27°49' W 097°28'0 0.0
2017-Dec-07 12:29N 27°49' W 097°28'0 0.0
2017-Dec-07 11:59N 27°49' W 097°28'0 0.0
2017-Dec-07 11:29N 27°49' W 097°28'0 0.0
2017-Dec-07 11:00N 27°49' W 097°28'0 0.0
2017-Dec-07 10:29N 27°49' W 097°28'0 0.0
2017-Dec-07 09:58N 27°49' W 097°28'0 0.0
2017-Dec-07 09:29N 27°49' W 097°28'0 0.0
2017-Dec-07 09:00N 27°49' W 097°28'0 0.2
2017-Dec-07 08:27N 27°49' W 097°28'0 0.3
2017-Dec-07 07:59N 27°49' W 097°28'0 0.2
2017-Dec-07 07:29N 27°49' W 097°28'0 0.0
2017-Dec-07 06:55N 27°49' W 097°28'0 0.0
2017-Dec-07 06:30N 27°49' W 097°28'0 0.0
2017-Dec-07 06:00N 27°49' W 097°28'0 0.0
2017-Dec-07 05:28N 27°49' W 097°28'0 0.0
2017-Dec-07 05:00N 27°49' W 097°28'1 2.9
2017-Dec-07 04:29N 27°49' W 097°27'1 0.2
2017-Dec-07 02:06N 27°49' W 097°26'0 0.0
2017-Dec-07 00:48N 27°49' W 097°26'0 0.0
2017-Dec-06 23:10N 27°49' W 097°26'2 4.9
2017-Dec-06 22:46N 27°49' W 097°28'0 0.0
2017-Dec-06 22:30N 27°49' W 097°28'0 0.0
2017-Dec-06 22:00N 27°49' W 097°28'0 0.1
2017-Dec-06 21:14N 27°49' W 097°28'  
2017-Dec-04 10:24N 27°49' W 097°28'0 0.0
2017-Dec-04 09:52N 27°49' W 097°28'0 0.0
2017-Dec-04 09:30N 27°49' W 097°28'0 0.0
2017-Dec-03 10:53N 27°49' W 097°28'1 0.1
2017-Dec-03 00:20N 27°49' W 097°28'0 0.0
2017-Dec-02 23:36N 27°49' W 097°28'0 0.0
2017-Dec-02 22:46N 27°49' W 097°28'0 0.0
2017-Dec-02 19:46N 27°49' W 097°28'0 0.0
2017-Dec-02 19:29N 27°49' W 097°28'0 0.0
2017-Dec-02 18:59N 27°49' W 097°28'0 0.0
2017-Dec-02 18:29N 27°49' W 097°28'0 0.0
2017-Dec-02 18:00N 27°49' W 097°28'0 0.0
2017-Dec-02 17:26N 27°49' W 097°28'0 0.0
2017-Dec-02 16:59N 27°49' W 097°28'0 0.0
2017-Dec-02 16:28N 27°49' W 097°28'0 0.0
2017-Dec-02 16:00N 27°49' W 097°28'0 0.0
2017-Dec-02 15:29N 27°49' W 097°28'0 0.0
2017-Dec-02 14:59N 27°49' W 097°28'0 0.0
2017-Dec-02 14:30N 27°49' W 097°28'0 0.0
2017-Dec-02 14:00N 27°49' W 097°28'0 0.0
2017-Dec-02 13:30N 27°49' W 097°28'0 0.0
2017-Dec-02 13:00N 27°49' W 097°28'0 0.0
2017-Dec-02 12:28N 27°49' W 097°28'0 0.0
2017-Dec-02 12:00N 27°49' W 097°28'0 0.0
2017-Dec-02 11:29N 27°49' W 097°28'0 0.0
2017-Dec-02 11:00N 27°49' W 097°28'0 0.0
2017-Dec-02 10:29N 27°49' W 097°28'0 0.0
2017-Dec-02 10:00N 27°49' W 097°28'0 0.0
2017-Dec-02 09:29N 27°49' W 097°28'0 0.0
2017-Dec-02 08:59N 27°49' W 097°28'0 0.0
2017-Dec-02 08:29N 27°49' W 097°28'0 0.0
2017-Dec-02 08:00N 27°49' W 097°28'0 0.0
2017-Dec-02 07:29N 27°49' W 097°28'0 0.0
2017-Dec-01 23:35N 27°49' W 097°28'0 0.1
2017-Dec-01 23:26N 27°49' W 097°28'0 0.3
2017-Dec-01 22:33N 27°49' W 097°29'0 2.9
2017-Dec-01 22:29N 27°49' W 097°28'2 5.0
2017-Dec-01 21:59N 27°49' W 097°26'0 0.9
2017-Dec-01 21:27N 27°49' W 097°25'3 7.6
2017-Dec-01 21:00N 27°49' W 097°21'4 7.6
2017-Dec-01 20:29N 27°49' W 097°17'4 7.8
2017-Dec-01 19:59N 27°49' W 097°12'4 8.5
2017-Dec-01 19:30N 27°50' W 097°08'4 8.2
2017-Dec-01 18:59N 27°51' W 097°03'1 2.2
2017-Dec-01 18:29N 27°52' W 097°03'0 0.0
2017-Dec-01 18:00N 27°52' W 097°03'0 0.0
2017-Dec-01 17:29N 27°52' W 097°03'0 0.0
2017-Dec-01 17:00N 27°52' W 097°03'0 0.0
2017-Dec-01 16:29N 27°52' W 097°03'0 0.0
2017-Dec-01 15:58N 27°52' W 097°03'0 0.0
2017-Dec-01 15:30N 27°52' W 097°03'0 0.0
2017-Dec-01 14:59N 27°52' W 097°03'0 0.0
2017-Dec-01 14:30N 27°52' W 097°03'0 0.0
2017-Dec-01 13:59N 27°52' W 097°03'0 0.0
2017-Dec-01 13:30N 27°52' W 097°03'0 0.0
2017-Dec-01 13:00N 27°52' W 097°03'0 0.0
2017-Dec-01 12:29N 27°52' W 097°03'0 0.0
2017-Dec-01 11:59N 27°52' W 097°03'0 0.0
2017-Dec-01 11:30N 27°52' W 097°03'0 0.0
2017-Dec-01 10:59N 27°52' W 097°03'0 0.0
2017-Dec-01 10:29N 27°52' W 097°03'0 0.0
2017-Dec-01 10:00N 27°52' W 097°03'0 0.0
2017-Dec-01 09:30N 27°52' W 097°03'0 0.0
2017-Dec-01 08:59N 27°52' W 097°03'0 0.0
2017-Dec-01 08:29N 27°52' W 097°03'0 0.0
2017-Dec-01 07:58N 27°52' W 097°03'0 0.0
2017-Dec-01 07:29N 27°52' W 097°03'0 0.0
2017-Dec-01 06:59N 27°52' W 097°03'0 0.0
2017-Dec-01 06:30N 27°52' W 097°03'0 0.0
2017-Dec-01 06:00N 27°52' W 097°03'0 0.0
2017-Dec-01 05:29N 27°52' W 097°03'0 0.0
2017-Dec-01 05:00N 27°52' W 097°03'0 0.0
2017-Dec-01 04:29N 27°52' W 097°03'0 0.0
2017-Dec-01 03:59N 27°52' W 097°03'0 0.0
2017-Dec-01 03:30N 27°52' W 097°03'0 0.0
2017-Dec-01 02:59N 27°52' W 097°03'0 0.0
2017-Dec-01 02:30N 27°52' W 097°03'0 0.0
2017-Dec-01 02:00N 27°52' W 097°03'0 0.0
2017-Dec-01 01:30N 27°52' W 097°03'1 2.0
2017-Dec-01 00:59N 27°51' W 097°03'0 0.5
2017-Dec-01 00:29N 27°52' W 097°03'2 4.2
2017-Dec-01 00:00N 27°50' W 097°05'3 5.1
2017-Nov-30 23:29N 27°50' W 097°08'3 5.2
2017-Nov-30 22:59N 27°49' W 097°11'2 4.2
2017-Nov-30 22:30N 27°51' W 097°10'0 0.3
2017-Nov-30 22:00N 27°51' W 097°10'2 3.3
2017-Nov-30 21:29N 27°49' W 097°10'4 8.6
2017-Nov-30 20:59N 27°50' W 097°05'2 3.3
2017-Nov-30 20:30N 27°51' W 097°04'0 0.0
2017-Nov-30 19:59N 27°51' W 097°04'0 0.0
2017-Nov-30 19:30N 27°51' W 097°04'0 0.0
2017-Nov-30 19:00N 27°51' W 097°04'0 0.0
2017-Nov-30 18:29N 27°51' W 097°04'2 3.2
2017-Nov-30 17:59N 27°52' W 097°03'0 0.0
2017-Nov-30 17:30N 27°52' W 097°03'0 0.0
2017-Nov-30 17:00N 27°52' W 097°03'0 0.2
2017-Nov-30 16:29N 27°52' W 097°03'0 0.2
2017-Nov-30 15:59N 27°52' W 097°03'0 0.0
2017-Nov-30 15:29N 27°52' W 097°03'0 0.0
2017-Nov-30 15:00N 27°52' W 097°03'0 0.0
2017-Nov-30 14:29N 27°52' W 097°03'0 0.0
2017-Nov-30 14:00N 27°52' W 097°03'0 0.0
2017-Nov-30 13:30N 27°52' W 097°03'0 0.0
2017-Nov-30 13:00N 27°52' W 097°03'0 0.0
2017-Nov-30 12:29N 27°52' W 097°03'0 0.0
2017-Nov-30 11:59N 27°52' W 097°03'0 0.0
2017-Nov-30 11:30N 27°52' W 097°03'0 0.0
2017-Nov-30 10:59N 27°52' W 097°03'0 0.0
2017-Nov-30 10:29N 27°52' W 097°03'0 0.0
2017-Nov-30 10:00N 27°52' W 097°03'0 0.0
2017-Nov-30 09:29N 27°52' W 097°03'0 0.0
2017-Nov-30 08:59N 27°52' W 097°03'1 1.7
2017-Nov-30 08:30N 27°53' W 097°03'0 0.0
2017-Nov-30 08:00N 27°53' W 097°03'0 0.0
2017-Nov-30 07:29N 27°53' W 097°03'0 0.1
2017-Nov-30 06:59N 27°53' W 097°03'0 0.5
2017-Nov-30 06:30N 27°53' W 097°03'0 1.0
2017-Nov-30 06:00N 27°52' W 097°03'2 3.5
2017-Nov-30 05:29N 27°54' W 097°03'3 6.9
2017-Nov-30 05:00N 27°57' W 097°03'4 6.9
2017-Nov-30 04:30N 28°00' W 097°01'4 7.3
2017-Nov-30 04:00N 28°03' W 096°59'4 7.0
2017-Nov-30 03:29N 28°06' W 096°56'3 6.9
2017-Nov-30 02:59N 28°09' W 096°54'3 7.2
2017-Nov-30 02:30N 28°11' W 096°51'3 6.7
2017-Nov-30 01:59N 28°13' W 096°48'3 5.7
2017-Nov-30 01:29N 28°15' W 096°45'4 7.1
2017-Nov-30 00:59N 28°17' W 096°42'3 6.1
2017-Nov-30 00:30N 28°19' W 096°40'2 3.3
2017-Nov-29 23:59N 28°20' W 096°38'3 5.5
2017-Nov-29 23:30N 28°21' W 096°36'2 4.5
2017-Nov-29 22:59N 28°23' W 096°33'24 4.9
2017-Nov-29 18:04N 28°36' W 096°11'0 0.1
2017-Nov-29 17:53N 28°36' W 096°11'2 4.6
2017-Nov-29 17:30N 28°37' W 096°09'3 5.9
2017-Nov-29 16:58N 28°38' W 096°05'3 5.9
2017-Nov-29 16:26N 28°40' W 096°02'2 4.6
2017-Nov-29 15:58N 28°40' W 095°60'0 0.0
2017-Nov-29 15:30N 28°40' W 095°60'0 0.0
2017-Nov-29 14:58N 28°40' W 095°60'0 0.0
2017-Nov-29 14:29N 28°40' W 095°60'0 0.0
2017-Nov-29 13:45N 28°40' W 095°60'  

Dump ship's entire track history